Ft Sturla — IBXV — position and weather

sailwx.info

Track history (hours):
 
Tides and Currents Weather Stations Pressure Air Temp Water Temp Dewpoint Dewpoint Depression Visibility Wind Speed Wind Dir Waves Ship Positions

Ft Sturla

Last reported at 2016-Feb-06 06:05 UTC. Time now 2016-Feb-07 10:43 UTC.
Position N 39°27' E 003°45'.

Length 120 m; draft 6.3 m.

Type: Ship (hazmat cat A). MMSI: 247282200.

Date/timePositionNaut miles runAvg speedWind from/ knotsBaromVisibWave heightAir tempDewpointWater temp
2016-Feb-06 06:05N 39°27' E 003°45'712.3
2016-Feb-06 05:32N 39°23' E 003°38'1212.4
2016-Feb-06 04:33N 39°16' E 003°25'1712.3
2016-Feb-06 03:12N 39°06' E 003°07'812.0
2016-Feb-06 02:33N 39°02' E 002°59'1111.4
2016-Feb-06 01:33N 38°59' E 002°45'1211.9
2016-Feb-06 00:33N 38°58' E 002°30'1212.0
2016-Feb-05 23:33N 38°57' E 002°14'1212.4
2016-Feb-05 22:33N 38°56' E 001°58'1212.3
2016-Feb-05 21:34N 38°55' E 001°43'1212.1
2016-Feb-05 20:33N 38°54' E 001°27'0 0.0
2016-Feb-05 04:25N 38°54' E 001°27'6 7.1
2016-Feb-05 03:33N 38°55' E 001°35'3 3.0
2016-Feb-05 02:33N 38°55' E 001°39'8 7.8
2016-Feb-05 01:32N 39°01' E 001°45'1212.4
2016-Feb-05 00:33N 39°13' E 001°47'1211.8
2016-Feb-04 23:33N 39°25' E 001°49'1311.9
2016-Feb-04 22:25N 39°38' E 001°52'1012.0
2016-Feb-04 21:33N 39°49' E 001°54'1211.8
2016-Feb-04 20:33N 40°00' E 001°56'1212.0
2016-Feb-04 19:33N 40°12' E 001°58'1211.8
2016-Feb-04 18:33N 40°24' E 002°01'1211.6
2016-Feb-04 17:33N 40°35' E 002°03'1211.7
2016-Feb-04 16:33N 40°47' E 002°05'1311.9
2016-Feb-04 15:27N 40°60' E 002°08'20 0.4
2016-Feb-02 15:25N 41°20' E 002°11'0 0.0
2016-Feb-02 13:04N 41°20' E 002°11'0 0.0
2016-Feb-02 12:28N 41°20' E 002°11'0 0.0
2016-Jan-31 18:19N 41°20' E 002°11'  
Track history (hours):
 
Tides and Currents Weather Stations Pressure Air Temp Water Temp Dewpoint Dewpoint Depression Visibility Wind Speed Wind Dir Waves Ship Positions

Ft Sturla

Last reported at 2016-Feb-06 06:05 UTC. Time now 2016-Feb-07 10:43 UTC.
Position N 39°27' E 003°45'.

Length 120 m; draft 6.3 m.

Type: Ship (hazmat cat A). MMSI: 247282200.

Date/timePositionNaut miles runAvg speedWind from/ knotsBaromVisibWave heightAir tempDewpointWater temp
2016-Feb-06 06:05N 39°27' E 003°45'712.3
2016-Feb-06 05:32N 39°23' E 003°38'1212.4
2016-Feb-06 04:33N 39°16' E 003°25'1712.3
2016-Feb-06 03:12N 39°06' E 003°07'812.0
2016-Feb-06 02:33N 39°02' E 002°59'1111.4
2016-Feb-06 01:33N 38°59' E 002°45'1211.9
2016-Feb-06 00:33N 38°58' E 002°30'1212.0
2016-Feb-05 23:33N 38°57' E 002°14'1212.4
2016-Feb-05 22:33N 38°56' E 001°58'1212.3
2016-Feb-05 21:34N 38°55' E 001°43'1212.1
2016-Feb-05 20:33N 38°54' E 001°27'0 0.0
2016-Feb-05 04:25N 38°54' E 001°27'6 7.1
2016-Feb-05 03:33N 38°55' E 001°35'3 3.0
2016-Feb-05 02:33N 38°55' E 001°39'8 7.8
2016-Feb-05 01:32N 39°01' E 001°45'1212.4
2016-Feb-05 00:33N 39°13' E 001°47'1211.8
2016-Feb-04 23:33N 39°25' E 001°49'1311.9
2016-Feb-04 22:25N 39°38' E 001°52'1012.0
2016-Feb-04 21:33N 39°49' E 001°54'1211.8
2016-Feb-04 20:33N 40°00' E 001°56'1212.0
2016-Feb-04 19:33N 40°12' E 001°58'1211.8
2016-Feb-04 18:33N 40°24' E 002°01'1211.6
2016-Feb-04 17:33N 40°35' E 002°03'1211.7
2016-Feb-04 16:33N 40°47' E 002°05'1311.9
2016-Feb-04 15:27N 40°60' E 002°08'20 0.4
2016-Feb-02 15:25N 41°20' E 002°11'0 0.0
2016-Feb-02 13:04N 41°20' E 002°11'0 0.0
2016-Feb-02 12:28N 41°20' E 002°11'0 0.0
2016-Jan-31 18:19N 41°20' E 002°11'  

Dump ship's entire track history